createdAt,value
2022-09-01T00:02:08.688Z,19.80
2022-09-01T00:07:14.729Z,19.80
2022-09-01T00:12:18.967Z,19.80
2022-09-01T00:17:27.253Z,19.70
2022-09-01T00:22:31.118Z,19.70
2022-09-01T00:27:35.023Z,19.60
2022-09-01T00:32:40.114Z,19.60
2022-09-01T00:37:48.398Z,19.60
2022-09-01T00:42:53.817Z,19.60
2022-09-01T00:47:58.890Z,19.50
2022-09-01T00:53:02.828Z,19.50
2022-09-01T00:58:19.470Z,19.50
2022-09-01T01:03:25.421Z,19.50
2022-09-01T01:08:34.177Z,19.40
2022-09-01T01:13:51.157Z,19.40
2022-09-01T01:18:56.946Z,19.30
2022-09-01T01:24:09.403Z,19.40
2022-09-01T01:29:14.979Z,19.30
2022-09-01T01:34:19.621Z,19.30
2022-09-01T01:39:26.866Z,19.20
2022-09-01T01:44:32.116Z,19.20
2022-09-01T01:49:37.932Z,19.20
2022-09-01T01:54:42.538Z,19.10
2022-09-01T01:59:48.351Z,19.10
2022-09-01T02:04:53.602Z,19.10
2022-09-01T02:09:57.780Z,19.10
2022-09-01T02:15:02.957Z,19.00
2022-09-01T02:20:09.496Z,19.00
2022-09-01T02:25:16.802Z,18.90
2022-09-01T02:30:24.961Z,19.00
2022-09-01T02:35:38.055Z,18.90
2022-09-01T02:40:43.884Z,18.80
2022-09-01T02:45:57.831Z,18.80
2022-09-01T02:51:03.070Z,18.80
2022-09-01T02:56:12.069Z,18.80
2022-09-01T03:01:21.909Z,18.70
2022-09-01T03:06:28.655Z,18.70
2022-09-01T03:11:36.727Z,18.70
2022-09-01T03:16:42.249Z,18.70
2022-09-01T03:21:48.014Z,18.60
2022-09-01T03:26:56.101Z,18.60
2022-09-01T03:32:01.789Z,18.50
2022-09-01T03:37:09.860Z,18.50
2022-09-01T03:42:19.511Z,18.50
2022-09-01T03:47:25.307Z,18.40
2022-09-01T03:52:30.039Z,18.40
2022-09-01T03:57:37.570Z,18.40
2022-09-01T04:02:43.497Z,18.40
2022-09-01T04:07:57.199Z,18.40
2022-09-01T04:13:01.548Z,18.30
2022-09-01T04:18:10.652Z,18.30
2022-09-01T04:23:17.057Z,18.20
2022-09-01T04:28:26.312Z,18.20
2022-09-01T04:33:39.424Z,18.20
2022-09-01T04:38:44.619Z,18.10
2022-09-01T04:43:52.133Z,18.10
2022-09-01T04:48:59.693Z,18.10
2022-09-01T04:54:03.885Z,18.00
2022-09-01T04:59:08.280Z,18.00
2022-09-01T05:04:17.919Z,18.00
2022-09-01T05:09:22.471Z,17.90
2022-09-01T05:14:43.656Z,17.90
2022-09-01T05:19:51.148Z,17.90
2022-09-01T05:24:56.320Z,17.90
2022-09-01T05:30:11.737Z,17.80
2022-09-01T05:35:19.018Z,17.80
2022-09-01T05:40:23.458Z,17.80
2022-09-01T05:45:36.350Z,17.70
2022-09-01T05:50:51.023Z,17.70
2022-09-01T05:55:57.432Z,17.70
2022-09-01T06:01:02.930Z,17.70
2022-09-01T06:06:12.331Z,17.70
2022-09-01T06:11:17.882Z,17.70
2022-09-01T06:16:22.190Z,17.70
2022-09-01T06:21:29.115Z,17.70
2022-09-01T06:26:35.049Z,17.70
2022-09-01T06:31:40.520Z,17.70
2022-09-01T06:36:47.816Z,17.70
2022-09-01T06:41:53.521Z,17.70
2022-09-01T06:47:01.746Z,17.70
2022-09-01T06:52:12.618Z,17.70
2022-09-01T07:02:47.118Z,17.70
2022-09-01T07:08:19.786Z,17.80
2022-09-01T07:19:16.089Z,17.80
2022-09-01T07:24:31.785Z,17.90
2022-09-01T07:30:09.553Z,18.00
2022-09-01T07:35:14.872Z,18.00
2022-09-01T07:42:32.051Z,17.80
2022-09-01T07:51:37.129Z,18.30
2022-09-01T07:56:45.558Z,18.40
2022-09-01T08:01:49.869Z,18.50
2022-09-01T08:06:55.862Z,18.60
2022-09-01T08:12:02.654Z,18.70
2022-09-01T08:17:18.055Z,18.90
2022-09-01T08:22:37.329Z,19.00
2022-09-01T08:27:59.838Z,19.20
2022-09-01T08:33:11.423Z,19.30
2022-09-01T08:38:21.045Z,19.40
2022-09-01T08:43:43.083Z,19.60
2022-09-01T08:54:46.849Z,19.90
2022-09-01T08:59:53.849Z,20.00
2022-09-01T09:05:17.013Z,20.20
2022-09-01T09:10:27.482Z,20.30
2022-09-01T09:15:41.364Z,20.50
2022-09-01T09:20:46.459Z,20.70
2022-09-01T09:25:52.271Z,20.80
2022-09-01T09:31:32.345Z,20.90
2022-09-01T09:36:41.959Z,21.10
2022-09-01T09:42:09.482Z,21.20
2022-09-01T09:47:45.085Z,21.40
2022-09-01T09:52:51.997Z,21.60
2022-09-01T09:58:12.980Z,21.70
2022-09-01T10:03:16.877Z,21.80
2022-09-01T10:08:48.354Z,22.00
2022-09-01T10:13:54.024Z,22.10
2022-09-01T10:19:16.333Z,22.30
2022-09-01T10:24:30.981Z,22.40
2022-09-01T10:29:48.602Z,22.60
2022-09-01T10:34:53.820Z,22.70
2022-09-01T10:40:20.648Z,22.90
2022-09-01T10:45:38.160Z,23.00
2022-09-01T10:50:43.069Z,23.20
2022-09-01T10:56:01.985Z,23.30
2022-09-01T11:01:11.890Z,23.40
2022-09-01T11:07:11.607Z,23.60
2022-09-01T11:12:34.217Z,23.70
2022-09-01T11:17:41.525Z,23.80
2022-09-01T11:22:47.774Z,23.90
2022-09-01T11:28:36.321Z,24.00
2022-09-01T11:33:55.116Z,24.00
2022-09-01T11:39:07.029Z,24.10
2022-09-01T11:44:18.469Z,24.20
2022-09-01T11:49:30.638Z,24.30
2022-09-01T11:54:41.249Z,24.50
2022-09-01T11:59:46.834Z,24.70
2022-09-01T12:04:56.225Z,24.80
2022-09-01T12:10:00.175Z,24.90
2022-09-01T12:15:10.596Z,25.10
2022-09-01T12:20:28.134Z,25.20
2022-09-01T12:25:34.861Z,25.30
2022-09-01T12:30:41.827Z,25.40
2022-09-01T12:35:46.542Z,25.50
2022-09-01T12:40:52.393Z,25.60
2022-09-01T12:46:00.145Z,25.70
2022-09-01T12:51:09.532Z,25.70
2022-09-01T12:56:24.570Z,25.80
2022-09-01T13:01:33.011Z,25.80
2022-09-01T13:06:37.007Z,25.70
2022-09-01T13:17:13.912Z,25.70
2022-09-01T13:22:18.160Z,25.70
2022-09-01T13:27:23.279Z,25.70
2022-09-01T13:32:29.686Z,25.70
2022-09-01T13:37:34.431Z,25.70
2022-09-01T13:42:38.229Z,25.60
2022-09-01T13:53:08.260Z,25.50
2022-09-01T13:58:12.262Z,25.40
2022-09-01T14:03:19.448Z,25.30
2022-09-01T14:08:23.849Z,25.30
2022-09-01T14:13:28.435Z,25.20
2022-09-01T14:18:37.267Z,25.20
2022-09-01T14:23:41.334Z,25.20
2022-09-01T14:28:48.735Z,25.10
2022-09-01T14:33:54.469Z,25.10
2022-09-01T14:38:58.867Z,25.00
2022-09-01T14:44:11.463Z,25.00
2022-09-01T14:49:28.642Z,25.00
2022-09-01T14:54:33.030Z,25.00
2022-09-01T14:59:37.409Z,25.00
2022-09-01T15:04:43.496Z,24.90
2022-09-01T15:09:47.453Z,24.90
2022-09-01T15:14:51.459Z,24.90
2022-09-01T15:20:16.776Z,24.90
2022-09-01T15:25:21.967Z,24.90
2022-09-01T15:30:28.701Z,24.90
2022-09-01T15:35:34.421Z,24.90
2022-09-01T15:40:41.875Z,24.80
2022-09-01T15:45:47.606Z,24.80
2022-09-01T15:50:54.225Z,24.80
2022-09-01T15:55:59.763Z,24.80
2022-09-01T16:01:03.624Z,24.80
2022-09-01T16:06:10.049Z,24.70
2022-09-01T16:11:14.365Z,24.70
2022-09-01T16:16:35.327Z,24.70
2022-09-01T16:21:51.053Z,24.60
2022-09-01T16:26:57.077Z,24.60
2022-09-01T16:32:00.927Z,24.50
2022-09-01T16:37:26.047Z,24.50
2022-09-01T16:42:43.444Z,24.40
2022-09-01T16:48:00.096Z,24.40
2022-09-01T16:53:23.712Z,24.30
2022-09-01T16:58:34.518Z,24.30
2022-09-01T17:03:50.844Z,24.20
2022-09-01T17:09:08.371Z,24.10
2022-09-01T17:14:27.054Z,24.20
2022-09-01T17:19:38.919Z,24.10
2022-09-01T17:24:48.791Z,24.00
2022-09-01T17:29:56.137Z,24.00
2022-09-01T17:35:23.080Z,24.00
2022-09-01T17:40:56.834Z,23.90
2022-09-01T17:46:25.549Z,23.90
2022-09-01T17:51:40.014Z,23.80
2022-09-01T17:56:53.739Z,23.70
2022-09-01T18:02:13.690Z,23.70
2022-09-01T18:07:36.942Z,23.70
2022-09-01T18:12:47.734Z,23.60
2022-09-01T18:18:02.238Z,23.60
2022-09-01T18:23:13.718Z,23.50
2022-09-01T18:28:31.797Z,23.40
2022-09-01T18:33:46.288Z,23.40
2022-09-01T18:38:58.616Z,23.30
2022-09-01T18:44:20.702Z,23.20
2022-09-01T18:49:34.988Z,23.20
2022-09-01T18:54:55.300Z,23.10
2022-09-01T19:00:18.709Z,23.00
2022-09-01T19:05:36.469Z,23.00
2022-09-01T19:10:49.252Z,22.90
2022-09-01T19:16:09.672Z,22.80
2022-09-01T19:21:25.517Z,22.70
2022-09-01T19:27:00.401Z,22.70
2022-09-01T19:32:32.344Z,22.60
2022-09-01T19:37:52.143Z,22.60
2022-09-01T19:43:11.025Z,22.50
2022-09-01T19:48:28.788Z,22.50
2022-09-01T19:53:52.893Z,22.40
2022-09-01T19:59:10.768Z,22.30
2022-09-01T20:04:35.203Z,22.30
2022-09-01T20:09:57.219Z,22.20
2022-09-01T20:15:17.826Z,22.20
2022-09-01T20:20:36.049Z,22.10
2022-09-01T20:25:54.166Z,22.10
2022-09-01T20:31:05.588Z,22.00
2022-09-01T20:36:17.820Z,22.00
2022-09-01T20:41:30.615Z,21.90
2022-09-01T20:46:41.129Z,21.90
2022-09-01T20:52:07.569Z,21.90
2022-09-01T20:57:31.213Z,21.80
2022-09-01T21:02:54.979Z,21.80
2022-09-01T21:08:31.304Z,21.70
2022-09-01T21:13:55.140Z,21.70
2022-09-01T21:19:15.777Z,21.60
2022-09-01T21:24:29.531Z,21.60
2022-09-01T21:29:55.312Z,21.50
2022-09-01T21:35:00.903Z,21.50
2022-09-01T21:40:08.516Z,21.40
2022-09-01T21:45:15.458Z,21.40
2022-09-01T21:50:23.379Z,21.30
2022-09-01T21:55:30.889Z,21.30
2022-09-01T22:00:41.028Z,21.30
2022-09-01T22:05:47.453Z,21.20
2022-09-01T22:10:57.275Z,21.20
2022-09-01T22:16:08.320Z,21.10
2022-09-01T22:21:20.377Z,21.10
2022-09-01T22:26:34.170Z,21.00
2022-09-01T22:32:00.825Z,21.00
2022-09-01T22:37:05.369Z,20.90
2022-09-01T22:42:10.507Z,20.80
2022-09-01T22:47:16.845Z,20.80
2022-09-01T22:52:20.701Z,20.80
2022-09-01T22:57:25.996Z,20.70
2022-09-01T23:02:30.275Z,20.70
2022-09-01T23:07:35.771Z,20.70
2022-09-01T23:12:42.815Z,20.60
2022-09-01T23:17:46.574Z,20.60
2022-09-01T23:22:50.291Z,20.50
2022-09-01T23:27:55.454Z,20.40
2022-09-01T23:32:59.124Z,20.40
2022-09-01T23:38:02.900Z,20.40
2022-09-01T23:43:07.960Z,20.30
2022-09-01T23:48:13.141Z,20.30
2022-09-01T23:53:17.199Z,20.20
2022-09-01T23:58:23.982Z,20.20
